createdAt,value
2019-05-03T00:04:31.597Z,5.77
2019-05-03T00:09:39.120Z,5.70
2019-05-03T00:14:48.392Z,5.10
2019-05-03T00:19:55.713Z,4.60
2019-05-03T00:25:08.102Z,5.13
2019-05-03T00:30:12.685Z,4.63
2019-05-03T00:35:26.292Z,4.03
2019-05-03T00:40:33.401Z,3.57
2019-05-03T00:45:42.228Z,7.43
2019-05-03T00:50:51.640Z,3.17
2019-05-03T00:55:58.378Z,4.33
2019-05-03T01:01:05.935Z,4.20
2019-05-03T01:06:13.249Z,3.47
2019-05-03T01:11:22.238Z,3.73
2019-05-03T01:16:31.515Z,4.90
2019-05-03T01:21:38.679Z,2.67
2019-05-03T01:26:46.181Z,3.20
2019-05-03T01:31:53.611Z,2.87
2019-05-03T01:37:02.592Z,3.73
2019-05-03T01:42:11.875Z,2.57
2019-05-03T01:47:26.179Z,4.25
2019-05-03T01:52:36.995Z,4.67
2019-05-03T01:57:44.319Z,4.05
2019-05-03T02:03:12.274Z,4.40
2019-05-03T02:08:19.216Z,4.40
2019-05-03T02:13:26.323Z,4.03
2019-05-03T02:18:35.035Z,3.67
2019-05-03T02:23:43.322Z,3.93
2019-05-03T02:28:52.599Z,4.07
2019-05-03T02:33:59.270Z,2.80
2019-05-03T02:39:13.332Z,4.10
2019-05-03T02:44:21.917Z,4.47
2019-05-03T02:49:47.629Z,3.90
2019-05-03T02:54:55.393Z,2.87
2019-05-03T03:00:05.092Z,3.13
2019-05-03T03:05:16.308Z,3.70
2019-05-03T03:10:22.090Z,3.17
2019-05-03T03:15:32.504Z,2.77
2019-05-03T03:20:40.876Z,3.00
2019-05-03T03:25:50.959Z,2.45
2019-05-03T03:31:29.260Z,2.60
2019-05-03T03:36:58.781Z,2.67
2019-05-03T03:41:57.137Z,2.70
2019-05-03T03:47:06.310Z,2.70
2019-05-03T03:52:16.128Z,2.90
2019-05-03T03:57:26.809Z,2.60
2019-05-03T04:02:35.348Z,3.83
2019-05-03T04:07:46.165Z,3.50
2019-05-03T04:12:52.635Z,3.50
2019-05-03T04:18:17.430Z,5.10
2019-05-03T04:23:26.421Z,2.50
2019-05-03T04:28:36.161Z,4.23
2019-05-03T04:33:45.089Z,3.83
2019-05-03T04:38:56.057Z,3.03
2019-05-03T04:44:01.926Z,2.75
2019-05-03T04:49:09.076Z,2.87
2019-05-03T04:54:28.914Z,3.40
2019-05-03T04:59:37.579Z,2.60
2019-05-03T05:04:46.311Z,2.90
2019-05-03T05:09:56.040Z,2.63
2019-05-03T05:15:05.117Z,3.00
2019-05-03T05:20:21.314Z,2.87
2019-05-03T05:25:30.392Z,3.57
2019-05-03T05:30:37.824Z,4.87
2019-05-03T05:35:44.967Z,2.30
2019-05-03T05:40:52.164Z,2.73
2019-05-03T05:45:59.330Z,2.72
2019-05-03T05:51:06.581Z,5.50
2019-05-03T05:56:36.453Z,3.00
2019-05-03T06:01:52.365Z,3.23
2019-05-03T06:07:17.510Z,3.00
2019-05-03T06:12:30.561Z,2.30
2019-05-03T06:17:45.077Z,2.70
2019-05-03T06:23:05.311Z,2.63
2019-05-03T06:28:22.518Z,3.13
2019-05-03T06:33:29.642Z,2.87
2019-05-03T06:38:37.113Z,2.17
2019-05-03T06:43:48.400Z,8.20
2019-05-03T06:48:54.313Z,4.77
2019-05-03T06:54:01.898Z,5.20
2019-05-03T06:59:14.380Z,3.33
2019-05-03T07:04:25.543Z,2.83
2019-05-03T07:09:44.468Z,4.43
2019-05-03T07:14:51.750Z,3.63
2019-05-03T07:19:58.868Z,5.30
2019-05-03T07:25:06.367Z,3.23
2019-05-03T07:30:15.525Z,4.20
2019-05-03T07:35:22.356Z,5.53
2019-05-03T07:40:29.488Z,8.73
2019-05-03T07:45:36.478Z,2.93
2019-05-03T07:50:44.724Z,1.63
2019-05-03T07:56:00.765Z,1.90
2019-05-03T08:01:11.642Z,0.90
2019-05-03T08:06:18.845Z,1.40
2019-05-03T08:11:25.929Z,18.07
2019-05-03T08:16:35.061Z,12.60
2019-05-03T08:21:41.925Z,3.77
2019-05-03T08:26:50.045Z,44.73
2019-05-03T08:32:06.898Z,16.00
2019-05-03T08:37:19.948Z,8.30
2019-05-03T08:42:28.159Z,0.80
2019-05-03T08:47:35.238Z,0.90
2019-05-03T08:52:44.642Z,0.70
2019-05-03T08:57:54.952Z,0.90
2019-05-03T09:03:01.290Z,1.17
2019-05-03T09:08:08.291Z,1.37
2019-05-03T09:13:17.471Z,0.85
2019-05-03T09:18:25.854Z,1.30
2019-05-03T09:23:35.668Z,1.37
2019-05-03T09:28:45.223Z,2.60
2019-05-03T09:33:51.662Z,0.80
2019-05-03T09:38:58.858Z,1.57
2019-05-03T09:44:06.206Z,1.37
2019-05-03T09:49:16.244Z,0.70
2019-05-03T09:54:27.315Z,0.60
2019-05-03T09:59:35.036Z,1.30
2019-05-03T10:04:44.490Z,1.67
2019-05-03T10:09:51.038Z,0.90
2019-05-03T10:14:58.171Z,1.90
2019-05-03T10:20:07.739Z,1.00
2019-05-03T10:25:18.988Z,6.30
2019-05-03T10:30:27.734Z,1.73
2019-05-03T10:35:35.495Z,1.03
2019-05-03T10:40:45.090Z,0.93
2019-05-03T10:45:51.388Z,1.10
2019-05-03T10:50:59.729Z,1.10
2019-05-03T10:56:22.669Z,0.87
2019-05-03T11:01:35.874Z,1.80
2019-05-03T11:06:45.516Z,0.90
2019-05-03T11:11:52.287Z,2.20
2019-05-03T11:17:00.647Z,10.10
2019-05-03T11:22:07.851Z,1.43
2019-05-03T11:27:24.696Z,0.70
2019-05-03T11:32:56.380Z,0.90
2019-05-03T11:38:16.693Z,1.10
2019-05-03T11:43:24.718Z,1.37
2019-05-03T11:48:34.746Z,1.70
2019-05-03T11:53:41.387Z,1.07
2019-05-03T11:58:48.718Z,7.17
2019-05-03T12:03:59.909Z,6.40
2019-05-03T12:09:07.801Z,27.23
2019-05-03T12:14:16.121Z,2.70
2019-05-03T12:19:30.043Z,1.03
2019-05-03T12:24:32.620Z,4.37
2019-05-03T12:29:40.218Z,4.00
2019-05-03T12:34:47.358Z,1.73
2019-05-03T12:39:54.872Z,0.93
2019-05-03T12:45:02.153Z,3.37
2019-05-03T12:50:09.569Z,0.70
2019-05-03T12:55:16.769Z,2.60
2019-05-03T13:00:48.680Z,0.93
2019-05-03T13:05:55.862Z,0.90
2019-05-03T13:11:05.044Z,2.95
2019-05-03T13:16:15.370Z,1.17
2019-05-03T13:21:22.573Z,3.35
2019-05-03T13:26:29.691Z,2.17
2019-05-03T13:31:37.066Z,3.50
2019-05-03T13:36:45.658Z,3.93
2019-05-03T13:41:54.852Z,2.80
2019-05-03T13:47:01.682Z,1.33
2019-05-03T13:52:08.806Z,0.90
2019-05-03T13:57:15.937Z,2.27
2019-05-03T14:02:23.069Z,3.70
2019-05-03T14:07:30.260Z,5.30
2019-05-03T14:12:37.360Z,3.27
2019-05-03T14:17:44.580Z,7.47
2019-05-03T14:22:52.509Z,5.17
2019-05-03T14:27:59.774Z,19.67
2019-05-03T14:33:07.010Z,9.97
2019-05-03T14:38:15.128Z,5.20
2019-05-03T14:43:24.709Z,3.52
2019-05-03T14:48:31.337Z,2.97
2019-05-03T14:53:38.463Z,4.53
2019-05-03T14:59:03.079Z,4.20
2019-05-03T15:04:10.448Z,2.05
2019-05-03T15:09:19.121Z,2.87
2019-05-03T15:14:26.485Z,2.10
2019-05-03T15:19:34.880Z,2.33
2019-05-03T15:24:42.248Z,1.33
2019-05-03T15:29:49.515Z,3.80
2019-05-03T15:34:57.592Z,1.47
2019-05-03T15:40:06.176Z,1.10
2019-05-03T15:45:51.149Z,1.10
2019-05-03T15:50:58.816Z,1.10
2019-05-03T15:56:06.044Z,2.63
2019-05-03T16:01:15.171Z,4.27
2019-05-03T16:06:21.986Z,1.70
2019-05-03T16:11:29.097Z,2.27
2019-05-03T16:16:36.276Z,3.13
2019-05-03T16:21:45.300Z,2.17
2019-05-03T16:27:24.817Z,2.33
2019-05-03T16:32:32.194Z,2.60
2019-05-03T16:37:39.353Z,1.87
2019-05-03T16:42:46.571Z,1.80
2019-05-03T16:47:53.661Z,5.90
2019-05-03T16:53:00.870Z,2.70
2019-05-03T16:58:08.154Z,1.90
2019-05-03T17:03:17.229Z,4.23
2019-05-03T17:08:56.654Z,6.53
2019-05-03T17:14:02.455Z,3.10
2019-05-03T17:19:11.165Z,2.20
2019-05-03T17:24:18.883Z,5.87
2019-05-03T17:29:26.215Z,6.40
2019-05-03T17:34:34.662Z,8.27
2019-05-03T17:40:06.841Z,15.83
2019-05-03T17:45:16.139Z,8.10
2019-05-03T17:50:23.587Z,5.83
2019-05-03T17:55:58.555Z,8.20
2019-05-03T18:01:16.943Z,4.00
2019-05-03T18:06:27.144Z,4.67
2019-05-03T18:11:38.732Z,5.80
2019-05-03T18:16:46.527Z,17.87
2019-05-03T18:21:55.328Z,33.53
2019-05-03T18:27:02.517Z,84.37
2019-05-03T18:32:09.765Z,69.73
2019-05-03T18:37:16.850Z,37.40
2019-05-03T18:42:30.911Z,33.50
2019-05-03T18:47:38.109Z,49.40
2019-05-03T18:52:45.220Z,21.47
2019-05-03T18:57:52.439Z,18.50
2019-05-03T19:02:59.730Z,8.53
2019-05-03T19:08:31.678Z,10.27
2019-05-03T19:13:44.834Z,5.57
2019-05-03T19:18:52.287Z,5.27
2019-05-03T19:23:59.418Z,6.93
2019-05-03T19:29:06.733Z,7.20
2019-05-03T19:34:15.452Z,7.67
2019-05-03T19:39:22.918Z,13.00
2019-05-03T19:44:31.764Z,22.22
2019-05-03T19:49:38.890Z,54.27
2019-05-03T19:54:46.097Z,83.87
2019-05-03T19:59:56.741Z,64.57
2019-05-03T20:05:21.053Z,26.73
2019-05-03T20:10:29.226Z,33.50
2019-05-03T20:15:36.344Z,14.17
2019-05-03T20:20:44.672Z,11.97
2019-05-03T20:25:51.925Z,7.87
2019-05-03T20:30:59.038Z,6.93
2019-05-03T20:36:06.299Z,7.77
2019-05-03T20:41:14.838Z,6.80
2019-05-03T20:46:32.915Z,6.13
2019-05-03T20:51:40.054Z,8.30
2019-05-03T20:56:48.360Z,6.43
2019-05-03T21:01:55.790Z,7.50
2019-05-03T21:07:04.701Z,5.60
2019-05-03T21:12:12.104Z,5.03
2019-05-03T21:17:30.263Z,4.50
2019-05-03T21:22:44.329Z,4.80
2019-05-03T21:27:52.007Z,4.43
2019-05-03T21:32:59.081Z,4.93
2019-05-03T21:38:06.170Z,14.63
2019-05-03T21:43:15.158Z,24.92
2019-05-03T21:48:26.236Z,31.13
2019-05-03T21:53:34.473Z,33.10
2019-05-03T21:58:42.280Z,17.50
2019-05-03T22:03:49.272Z,4.97
2019-05-03T22:08:58.388Z,5.00
2019-05-03T22:14:09.555Z,5.53
2019-05-03T22:19:25.060Z,6.53
2019-05-03T22:24:36.937Z,5.00
2019-05-03T22:29:44.748Z,4.97
2019-05-03T22:34:52.070Z,4.20
2019-05-03T22:39:59.160Z,2.87
2019-05-03T22:45:06.774Z,3.37
2019-05-03T22:50:14.940Z,4.37
2019-05-03T22:55:24.639Z,4.50
2019-05-03T23:00:31.535Z,3.30
2019-05-03T23:05:38.594Z,3.67
2019-05-03T23:10:49.276Z,3.90
2019-05-03T23:15:57.985Z,2.97
2019-05-03T23:21:15.204Z,3.98
2019-05-03T23:26:22.606Z,3.87
2019-05-03T23:31:29.772Z,4.30
2019-05-03T23:36:37.458Z,3.63
2019-05-03T23:41:44.530Z,3.73
2019-05-03T23:47:14.588Z,3.60
2019-05-03T23:52:35.592Z,3.50
2019-05-03T23:57:44.645Z,4.50
